Estación Meteorológica Peña el Pijo (Robertgarden) [ 09/22/18 22:40:01 CEST ]

Fecha Hora Presion(HPa) Temp (°C) Humedad % Rocio (°C) Viento ( m/s) Direccion Lluvia 1Hora(mm) Lluvia 24H(mm) LLuvia Total(mm)
2018-Jan-30 01:01:35 1018.800 1.3 83 -1.3         62.67
2018-Jan-30 02:01:41 1018.400 0.2 83 -2.3         62.67
2018-Jan-30 03:01:43 1017.800 -0.6 84 -3.0         62.67
2018-Jan-30 04:10:12 1017.400 -1.1 84 -3.5         62.67
2018-Jan-30 05:01:44 1017.200 -1.4 85 -3.6         62.67
2018-Jan-30 06:01:41 1016.800 -1.8 86 -3.8         62.67
2018-Jan-30 07:01:36 1016.700 -2.1 86 -4.1         62.67
2018-Jan-30 08:01:28 1017.000 -2.2 87 -4.1         62.67
2018-Jan-30 09:01:32 1017.100 -2.1 87 -4.0         62.67
2018-Jan-30 10:01:34 1017.100 2.1 88 0.3         62.67
2018-Jan-30 11:01:32 1017.100 6.1 84 3.6         62.67
2018-Jan-30 12:01:40 1016.700 8.1 68 2.5         62.67
2018-Jan-30 13:01:33 1015.800 9.8 63 3.1         62.67
2018-Jan-30 14:01:34 1015.200 10.3 59 2.6 5.0 ENE     62.67
2018-Jan-30 15:01:43 1014.200 11.1 57 2.8         62.67
2018-Jan-30 16:01:33 1014.000 11.2 57 2.9         62.67
2018-Jan-30 17:01:30 1013.700 9.6 63 2.9         62.67
2018-Jan-30 18:01:31 1013.700 7.6 70 2.5         62.67
2018-Jan-30 19:01:38 1014.000 5.1 76 1.3         62.67
2018-Jan-30 20:01:24 1014.600 3.1 78 -0.3         62.67
2018-Jan-30 21:01:39 1014.800 1.6 80 -1.5         62.67
2018-Jan-30 22:01:31 1014.900 1.8 82 -1.0         62.67
2018-Jan-30 23:01:39 1014.800 2.9 84 0.4         62.67

Temperatura Máxima:11°    Temperatura Mínima:-2°
Presión Máxima:1018.800 Hpa    Presión Mínima:1013.700 Hpa


Volver